Terminal Aerodrome Forecast
Issued by NWS Twin Cities, MN

Home | Current Version | Previous Version | Text Only | Print | Product List | Glossary On
Versions: 1 2 3 4 5 6 7 8 9 10 11 12 13 14 15 16
198
FTUS43 KMPX 292331
TAFEAU
TAF
KEAU 292331Z 3000/3024 18008KT P6SM OVC024
     FM300500 15005KT 5SM -RASN BR SCT009 OVC018
     FM301000 11004KT 3SM -SN BR BKN007 OVC012
     FM301400 13005KT 2SM -RASN BR OVC005
     FM302000 35005KT 3SM -RA BR OVC012=

USA.gov is the U.S. government's official web portal to all federal, state and local government web resources and services.